Hauptseite
METAR-TAF:

METAR-TAF

Flughäfen :

Flughafen Wellington

Wellington, Neuseeland

Breite: 41-20S, Länge: 174-48E, Höhe: 12 m

Beobachtung

Neuester Wetterbericht von vor 26 Minuten, um 05:30 UTC
Wind 19 kt aus Nord
Temperatur 13°C
Luftfeuchtigkeit 77%
Luftdruck 1010 hPa
Sichtweite 10 km oder mehr

METAR: NZWN 100530Z AUTO 01019KT 9999 NCD 13/09 Q1010 NOSIG

Zeit: 17:56 (05:56 UTC)

Prognose

Neuester Wetterbericht von vor 51 Minuten, um 05:05 UTC
Gültige Prognose vom 10 um 06 UTC bis 11 um 06 UTC
Wind 18 kt aus Nord
Sichtweite 10 km oder mehr
Aufgelockert bewölkt in der Höhe von 2000 ft

TAF: NZWN 100505Z 1006/1106 36018KT 9999 SCT020

Wetterbeobachtungen und Prognosen von mehr als 4000 Flughäfen (METAR und TAF Bericht).

Die verfügbaren Stationen werden durch gelbe und rote Markierungen auf der Karte dargestellt.

Führen Sie die Maus auf sie, um den Namen der Station zu sehen.

Darauf klicken, um die Beobachtung von Wetterbeobachtungen und Prognosen zu sehen.

Um die Karte zu ändern : klicken Sie auf den grünen Tasten mit einem schwarzen Kreuz Zum Vergrößern, auf den grünen Button mit einem Gedankenstrich zu verkleinern, oder auf die grünen Pfeile für benachbarte Karten.


METAR-TAF: